Time;durP1;ratioP1;P1;durP2;ratioP2;P2;SDS_P1;SDS_P2;PMS_P1;PMS_P2;Temp;Humidity;BMP_temperature;BMP_pressure;BME280_temperature;BME280_humidity;BME280_pressure;Samples;Min_cycle;Max_cycle;Signal;HPM_P1;HPM_P2
2023/09/26 00:01:42;;;;;;;5.05;2.00;;;;;;;20.72;53.15;102112.44;5030923;28;20033;-73
2023/09/26 00:04:07;;;;;;;6.18;2.30;;;;;;;20.72;52.98;102110.63;5048472;28;20040;-73
2023/09/26 00:06:33;;;;;;;5.85;2.20;;;;;;;20.73;52.98;102106.16;5048096;28;20489;-73
2023/09/26 00:08:58;;;;;;;4.13;2.17;;;;;;;20.72;53.03;102107.13;5048303;28;20432;-73
2023/09/26 00:11:24;;;;;;;4.00;2.00;;;;;;;20.71;52.95;102103.66;5048328;28;20028;-73
2023/09/26 00:13:49;;;;;;;3.92;1.98;;;;;;;20.71;53.07;102108.94;5048596;28;20503;-73
2023/09/26 00:16:15;;;;;;;4.53;2.00;;;;;;;20.69;53.04;102105.53;5048797;28;20072;-73
2023/09/26 00:18:42;;;;;;;4.97;2.35;;;;;;;20.70;52.84;102106.41;5048449;28;20063;-73
2023/09/26 00:21:08;;;;;;;5.20;2.20;;;;;;;20.69;52.86;102102.88;5048331;28;20504;-73
2023/09/26 00:23:35;;;;;;;5.22;2.47;;;;;;;20.68;52.91;102103.00;5048354;28;20094;-73
2023/09/26 00:26:00;;;;;;;5.78;2.50;;;;;;;20.69;52.87;102107.34;5047970;28;20068;-73
2023/09/26 00:28:25;;;;;;;4.40;2.25;;;;;;;20.68;53.00;102109.16;5048498;28;20068;-73
2023/09/26 00:30:51;;;;;;;4.55;2.22;;;;;;;20.68;52.83;102109.16;5028181;28;20075;-73
2023/09/26 00:33:16;;;;;;;4.05;2.20;;;;;;;20.67;53.08;102094.22;5066115;28;20455;-73
2023/09/26 00:35:41;;;;;;;5.53;2.47;;;;;;;20.70;52.87;102101.09;5057641;28;20029;-74
2023/09/26 00:38:07;;;;;;;3.88;2.00;;;;;;;20.67;52.97;102102.16;5029866;28;20112;-73
2023/09/26 00:40:33;;;;;;;4.47;2.03;;;;;;;20.67;52.76;102099.53;5047919;28;20037;-73
2023/09/26 00:42:59;;;;;;;5.85;2.00;;;;;;;20.67;52.92;102110.13;5038970;28;20045;-72
2023/09/26 00:45:27;;;;;;;3.72;1.80;;;;;;;20.68;52.74;102108.28;5067396;28;20076;-73
2023/09/26 00:47:53;;;;;;;5.53;2.30;;;;;;;20.67;52.71;102102.16;5068190;28;20117;-73
2023/09/26 00:50:22;;;;;;;4.30;2.10;;;;;;;20.64;52.71;102099.72;5062282;28;20071;-73
2023/09/26 00:52:49;;;;;;;5.43;2.10;;;;;;;20.64;52.65;102108.53;5049507;28;20033;-73
2023/09/26 00:55:18;;;;;;;4.95;1.98;;;;;;;20.64;52.73;102103.22;5049714;28;20029;-74
2023/09/26 00:57:44;;;;;;;4.45;2.13;;;;;;;20.64;52.78;102097.94;5054144;28;20032;-73
2023/09/26 01:00:14;;;;;;;5.55;2.50;;;;;;;20.65;52.59;102104.94;5054592;28;20083;-73
2023/09/26 01:02:40;;;;;;;5.13;2.35;;;;;;;20.63;52.45;102092.69;5053151;28;20033;-73
2023/09/26 01:05:06;;;;;;;4.80;2.10;;;;;;;20.62;52.66;102094.53;5051164;28;20024;-73
2023/09/26 01:07:33;;;;;;;4.10;1.92;;;;;;;20.63;52.91;102087.41;5048209;28;20035;-73
2023/09/26 01:09:59;;;;;;;4.45;2.30;;;;;;;20.64;52.59;102089.13;5047535;28;20055;-73
2023/09/26 01:12:26;;;;;;;4.97;2.38;;;;;;;20.63;52.70;102085.63;5047990;28;20028;-73
2023/09/26 01:14:52;;;;;;;6.57;2.30;;;;;;;20.62;52.85;102083.94;5047418;28;20033;-73
2023/09/26 01:17:17;;;;;;;4.28;2.05;;;;;;;20.62;52.80;102086.56;5046652;28;20036;-73
2023/09/26 01:19:42;;;;;;;4.10;2.03;;;;;;;20.61;52.54;102082.22;5047431;28;20051;-72
2023/09/26 01:22:08;;;;;;;5.18;2.20;;;;;;;20.63;52.71;102085.63;5029386;28;20522;-72
2023/09/26 01:24:35;;;;;;;4.22;2.00;;;;;;;20.62;52.58;102091.88;5050346;28;20674;-72
2023/09/26 01:27:00;;;;;;;4.15;2.40;;;;;;;20.61;52.76;102087.50;5067114;28;20062;-73
2023/09/26 01:29:25;;;;;;;4.97;2.22;;;;;;;20.62;52.55;102096.31;5046871;28;20029;-72
2023/09/26 01:31:51;;;;;;;4.78;2.30;;;;;;;20.61;52.51;102095.47;5047256;28;20033;-73
2023/09/26 01:34:17;;;;;;;4.55;2.22;;;;;;;20.61;52.49;102097.28;5046901;28;20126;-73
2023/09/26 01:36:42;;;;;;;4.63;2.25;;;;;;;20.61;52.27;102102.56;5046933;28;20029;-72
2023/09/26 01:39:07;;;;;;;4.47;2.00;;;;;;;20.59;52.47;102097.38;5046998;28;20029;-73
2023/09/26 01:41:33;;;;;;;4.15;1.90;;;;;;;20.61;52.48;102089.34;5046794;28;20064;-73
2023/09/26 01:43:58;;;;;;;4.93;2.13;;;;;;;20.59;52.40;102089.44;5046944;28;20068;-73
2023/09/26 01:46:24;;;;;;;5.90;3.03;;;;;;;20.59;52.27;102093.91;5047129;28;20147;-72
2023/09/26 01:48:50;;;;;;;4.60;2.30;;;;;;;20.59;52.52;102085.97;5046996;28;20622;-73
2023/09/26 01:51:15;;;;;;;5.45;2.50;;;;;;;20.57;52.55;102090.50;5046548;28;20033;-73
2023/09/26 01:53:41;;;;;;;5.15;2.20;;;;;;;20.57;52.38;102085.19;5046679;28;20079;-74
2023/09/26 01:56:06;;;;;;;4.90;2.35;;;;;;;20.57;52.57;102088.72;5046704;28;20463;-72
2023/09/26 01:58:32;;;;;;;5.00;2.20;;;;;;;20.57;52.41;102085.19;5046682;28;20032;-73
2023/09/26 02:00:58;;;;;;;4.03;2.17;;;;;;;20.56;52.61;102078.22;5046203;28;20041;-72
2023/09/26 02:03:23;;;;;;;4.72;2.45;;;;;;;20.57;52.51;102078.13;5046635;28;20056;-73
2023/09/26 02:05:48;;;;;;;5.40;2.67;;;;;;;20.56;52.54;102084.38;5046383;28;20389;-73
2023/09/26 02:08:16;;;;;;;4.57;2.20;;;;;;;20.57;52.17;102080.78;5046305;28;20473;-73
2023/09/26 02:10:41;;;;;;;5.38;2.28;;;;;;;20.56;52.51;102081.72;5046738;28;20032;-73
2023/09/26 02:13:06;;;;;;;5.43;2.53;;;;;;;20.55;52.25;102087.97;5046648;28;20036;-73
2023/09/26 02:15:32;;;;;;;5.25;2.40;;;;;;;20.56;52.23;102079.06;5046208;28;20024;-73
2023/09/26 02:17:57;;;;;;;5.25;2.75;;;;;;;20.53;52.32;102068.69;5046472;28;20036;-73
2023/09/26 02:20:22;;;;;;;4.60;2.22;;;;;;;20.55;52.24;102072.06;5046112;28;20031;-73
2023/09/26 02:22:50;;;;;;;5.50;2.08;;;;;;;20.55;52.45;102073.88;5045973;28;20436;-73
2023/09/26 02:25:19;;;;;;;5.63;2.38;;;;;;;20.56;52.52;102065.00;5028460;28;20075;-73
2023/09/26 02:27:44;;;;;;;4.53;2.17;;;;;;;20.54;52.31;102067.75;5046332;28;20114;-73
2023/09/26 02:30:15;;;;;;;5.55;2.22;;;;;;;20.53;52.20;102071.34;5045930;28;20037;-73
2023/09/26 02:32:41;;;;;;;4.18;2.20;;;;;;;20.55;52.45;102074.72;5046066;28;20086;-73
2023/09/26 02:35:10;;;;;;;5.55;2.90;;;;;;;20.53;52.31;102071.34;5045851;28;20033;-74
2023/09/26 02:37:37;;;;;;;4.13;2.00;;;;;;;20.54;52.42;102072.22;5046315;28;20033;-73
2023/09/26 02:40:05;;;;;;;5.03;2.58;;;;;;;20.52;52.03;102064.38;5046143;28;20025;-73
2023/09/26 02:42:32;;;;;;;4.90;1.92;;;;;;;20.53;52.33;102062.56;5045860;28;20053;-73
2023/09/26 02:44:57;;;;;;;5.50;2.53;;;;;;;20.53;52.09;102060.75;5045993;28;20079;-72
2023/09/26 02:47:22;;;;;;;4.40;2.17;;;;;;;20.52;52.09;102056.44;5046054;28;20025;-73
2023/09/26 02:49:48;;;;;;;4.80;2.42;;;;;;;20.53;52.32;102054.63;5045953;28;20478;-74
2023/09/26 02:52:13;;;;;;;5.82;2.22;;;;;;;20.54;52.09;102057.16;5046165;28;20138;-73
2023/09/26 02:54:38;;;;;;;4.32;2.20;;;;;;;20.53;52.23;102052.81;5045917;28;20025;-72
2023/09/26 02:57:04;;;;;;;4.72;2.55;;;;;;;20.54;52.25;102043.06;5046197;28;20032;-73
2023/09/26 02:59:29;;;;;;;5.20;2.40;;;;;;;20.52;52.38;102034.38;5046023;28;20040;-72
2023/09/26 03:01:54;;;;;;;6.63;2.05;;;;;;;20.53;52.47;102039.56;5045888;28;20036;-73
2023/09/26 03:04:20;;;;;;;5.65;2.40;;;;;;;20.52;52.55;102037.03;5045673;28;20033;-73
2023/09/26 03:06:45;;;;;;;4.75;2.35;;;;;;;20.52;52.24;102031.72;5046149;28;20497;-72
2023/09/26 03:09:10;;;;;;;4.25;2.15;;;;;;;20.51;52.19;102028.25;5046003;28;20058;-73
2023/09/26 03:11:36;;;;;;;4.55;2.45;;;;;;;20.52;51.76;102031.72;5045899;28;20041;-73
2023/09/26 03:14:01;;;;;;;4.22;2.10;;;;;;;20.52;52.12;102029.06;5045872;28;20481;-73
2023/09/26 03:16:26;;;;;;;6.43;2.92;;;;;;;20.49;51.95;102030.16;5045691;28;20448;-73
2023/09/26 03:18:55;;;;;;;4.53;2.10;;;;;;;20.47;52.22;102032.94;5045215;28;20037;-72
2023/09/26 03:21:21;;;;;;;4.82;2.30;;;;;;;20.51;52.18;102033.53;5048828;28;20035;-73
2023/09/26 03:23:47;;;;;;;5.40;2.35;;;;;;;20.51;51.84;102033.53;5065756;28;20032;-73
2023/09/26 03:26:15;;;;;;;4.95;2.42;;;;;;;20.50;52.00;102023.06;5065577;28;20651;-73
2023/09/26 03:28:40;;;;;;;5.60;2.50;;;;;;;20.50;52.01;102031.00;5065604;28;20028;-72
2023/09/26 03:31:09;;;;;;;5.03;2.50;;;;;;;20.47;52.01;102022.34;5065607;28;20028;-73
2023/09/26 03:33:35;;;;;;;4.80;2.30;;;;;;;20.48;52.17;102033.75;5065556;28;20046;-72
2023/09/26 03:36:01;;;;;;;8.30;2.65;;;;;;;20.48;52.09;102031.13;5065536;28;20107;-72
2023/09/26 03:38:26;;;;;;;4.65;2.40;;;;;;;20.48;52.23;102031.13;5065713;28;20523;-72
2023/09/26 03:41:03;;;;;;;5.22;2.47;;;;;;;20.46;52.07;102027.75;5066455;28;20024;-73
2023/09/26 03:43:29;;;;;;;5.25;2.65;;;;;;;20.48;51.87;102028.47;5069040;28;20044;-72
2023/09/26 03:46:00;;;;;;;6.53;2.55;;;;;;;20.48;51.82;102033.75;5068801;28;20120;-72
2023/09/26 03:48:25;;;;;;;4.43;2.50;;;;;;;20.46;51.94;102030.38;5069149;28;20110;-72
2023/09/26 03:50:50;;;;;;;5.68;2.53;;;;;;;20.47;51.71;102034.72;5068978;28;20510;-72
2023/09/26 03:53:16;;;;;;;5.30;2.40;;;;;;;20.46;52.21;102027.75;5069170;28;20032;-72
2023/09/26 03:55:41;;;;;;;5.20;2.70;;;;;;;20.47;52.09;102027.63;5068834;28;20044;-72
2023/09/26 03:58:07;;;;;;;4.60;2.60;;;;;;;20.45;51.89;102021.59;5069259;28;20040;-73
2023/09/26 04:00:32;;;;;;;5.38;2.47;;;;;;;20.45;51.76;102021.59;5068660;28;20043;-73
2023/09/26 04:02:57;;;;;;;8.50;2.70;;;;;;;20.47;51.46;102018.81;5068586;28;20142;-72
2023/09/26 04:05:23;;;;;;;4.82;2.75;;;;;;;20.45;51.61;102023.38;5050773;28;20115;-73
2023/09/26 04:07:48;;;;;;;4.63;2.40;;;;;;;20.45;51.91;102026.03;5050915;28;20047;-72
2023/09/26 04:10:13;;;;;;;5.55;2.60;;;;;;;20.45;51.91;102026.03;5051007;28;20021;-72
2023/09/26 04:12:39;;;;;;;6.03;2.55;;;;;;;20.45;51.67;102024.22;5068704;28;20024;-73
2023/09/26 04:15:05;;;;;;;4.93;2.38;;;;;;;20.44;51.84;102027.00;5068427;28;20024;-73
2023/09/26 04:17:30;;;;;;;5.43;3.13;;;;;;;20.43;51.77;102017.38;5068767;28;20029;-73
2023/09/26 04:19:56;;;;;;;4.85;2.92;;;;;;;20.44;51.75;102014.63;5068278;28;20396;-73
2023/09/26 04:22:21;;;;;;;5.22;2.70;;;;;;;20.43;51.84;102009.44;5053699;28;20075;-72
2023/09/26 04:24:46;;;;;;;4.65;2.47;;;;;;;20.44;51.68;102008.44;5066139;28;20511;-72
2023/09/26 04:27:11;;;;;;;5.53;2.78;;;;;;;20.45;51.70;102007.50;5048118;28;20033;-72
2023/09/26 04:29:37;;;;;;;5.18;2.60;;;;;;;20.44;52.08;101998.72;5050115;28;20037;-72
2023/09/26 04:32:03;;;;;;;4.32;2.30;;;;;;;20.44;51.83;101992.56;5058406;28;20044;-71
2023/09/26 04:34:29;;;;;;;4.95;3.03;;;;;;;20.41;51.53;101991.00;5048318;28;20486;-72
2023/09/26 04:36:54;;;;;;;4.65;2.28;;;;;;;20.42;51.66;101990.03;5048249;28;20024;-72
2023/09/26 04:39:19;;;;;;;6.18;2.70;;;;;;;20.42;51.55;102000.63;5048030;28;20029;-72
2023/09/26 04:41:45;;;;;;;4.45;2.58;;;;;;;20.43;51.87;101994.38;5029856;28;20409;-72
2023/09/26 04:44:11;;;;;;;4.90;2.53;;;;;;;20.42;51.59;102000.63;5047910;28;20064;-73
2023/09/26 04:46:36;;;;;;;5.32;2.58;;;;;;;20.42;51.96;101986.53;5029607;28;20099;-72
2023/09/26 04:49:02;;;;;;;4.50;2.38;;;;;;;20.42;51.98;101984.72;5048276;28;20040;-73
2023/09/26 04:51:27;;;;;;;4.80;2.45;;;;;;;20.42;51.86;101981.25;5047449;28;20041;-72
2023/09/26 04:53:52;;;;;;;5.57;2.80;;;;;;;20.42;51.93;101981.25;5047937;28;20021;-72
2023/09/26 04:56:18;;;;;;;5.07;2.50;;;;;;;20.41;51.84;101979.56;5047531;28;20029;-73
2023/09/26 04:58:43;;;;;;;5.70;2.33;;;;;;;20.40;51.68;101983.16;5029889;28;20021;-73
2023/09/26 05:01:14;;;;;;;5.20;2.40;;;;;;;20.40;51.78;101977.88;5047414;28;20477;-73
2023/09/26 05:03:41;;;;;;;5.43;2.72;;;;;;;20.40;51.59;101984.00;5047682;28;20032;-72
2023/09/26 05:06:07;;;;;;;5.50;2.58;;;;;;;20.41;51.51;101987.50;5047557;28;20040;-72
2023/09/26 05:08:32;;;;;;;5.43;2.63;;;;;;;20.40;51.88;101989.31;5021530;28;20021;-73
2023/09/26 05:10:58;;;;;;;4.40;2.80;;;;;;;20.40;51.65;101991.13;5047509;28;20029;-73
2023/09/26 05:13:23;;;;;;;4.85;2.65;;;;;;;20.38;51.69;101982.44;5047400;28;20050;-73
2023/09/26 05:15:49;;;;;;;5.00;2.47;;;;;;;20.38;51.88;101983.28;5047413;28;20036;-72
2023/09/26 05:18:14;;;;;;;5.85;2.90;;;;;;;20.37;51.68;101980.75;5064897;28;20469;-72
2023/09/26 05:20:39;;;;;;;4.82;2.50;;;;;;;20.39;51.78;101977.00;5049544;28;20035;-73
2023/09/26 05:23:04;;;;;;;5.25;2.80;;;;;;;20.40;52.01;101984.00;5067425;28;20039;-73
2023/09/26 05:25:33;;;;;;;5.75;3.00;;;;;;;20.38;51.82;101982.44;5067184;28;20150;-72
2023/09/26 05:27:59;;;;;;;5.80;2.92;;;;;;;20.39;51.71;101981.47;5071188;28;20033;-73
2023/09/26 05:30:24;;;;;;;5.43;2.80;;;;;;;20.36;52.07;101977.25;5067517;28;20029;-73
2023/09/26 05:32:50;;;;;;;5.07;2.70;;;;;;;20.37;52.06;101981.59;5059748;28;20388;-73
2023/09/26 05:35:15;;;;;;;7.63;2.73;;;;;;;20.36;51.93;101982.56;5063589;28;20032;-73
2023/09/26 05:37:40;;;;;;;6.03;2.85;;;;;;;20.36;51.85;101979.91;5070746;28;20808;-73
2023/09/26 05:40:07;;;;;;;5.72;2.80;;;;;;;20.36;51.88;101979.91;5067283;28;20032;-73
2023/09/26 05:42:33;;;;;;;6.65;4.07;;;;;;;20.36;51.99;101979.91;5072405;28;20108;-73
2023/09/26 05:44:58;;;;;;;6.28;2.90;;;;;;;20.37;51.96;101986.03;5081242;28;20025;-73
2023/09/26 05:47:24;;;;;;;6.38;2.95;;;;;;;20.37;52.16;101993.97;5081438;28;20033;-73
2023/09/26 05:49:50;;;;;;;6.20;2.83;;;;;;;20.37;51.94;101996.63;5068052;28;20032;-73
2023/09/26 05:52:16;;;;;;;5.78;2.72;;;;;;;20.36;51.92;101998.44;5066519;28;20032;-72
2023/09/26 05:54:41;;;;;;;5.50;2.67;;;;;;;20.36;51.95;101998.44;5048708;28;20028;-72
2023/09/26 05:57:07;;;;;;;5.22;2.63;;;;;;;20.35;51.84;101993.25;5066692;28;20020;-72
2023/09/26 05:59:32;;;;;;;5.95;2.85;;;;;;;20.36;51.82;101995.81;5066529;28;20047;-72
2023/09/26 06:01:58;;;;;;;5.35;2.63;;;;;;;20.37;51.94;101999.28;5066434;28;20032;-73
2023/09/26 06:04:23;;;;;;;5.00;2.88;;;;;;;20.34;51.97;101987.09;5066155;28;20115;-73
2023/09/26 06:06:49;;;;;;;5.40;2.50;;;;;;;20.38;52.00;101993.03;5066413;28;20476;-72
2023/09/26 06:09:14;;;;;;;5.32;2.50;;;;;;;20.37;52.07;101997.47;5066446;28;20389;-73
2023/09/26 06:11:39;;;;;;;4.53;2.50;;;;;;;20.39;52.07;101998.19;5059713;28;20163;-72
2023/09/26 06:14:05;;;;;;;5.70;2.55;;;;;;;20.41;52.19;101995.44;5046551;28;20033;-71
2023/09/26 06:16:30;;;;;;;5.43;2.90;;;;;;;20.41;52.41;101991.00;5046316;28;20119;-72
2023/09/26 06:18:55;;;;;;;5.13;2.55;;;;;;;20.40;52.34;101989.31;5046414;28;20175;-73
2023/09/26 06:21:21;;;;;;;5.35;2.95;;;;;;;20.39;52.31;101986.78;5046258;28;20040;-73
2023/09/26 06:23:48;;;;;;;6.15;2.67;;;;;;;20.40;52.35;101988.47;5046447;28;20044;-74
2023/09/26 06:26:14;;;;;;;4.50;2.40;;;;;;;20.36;52.50;101973.75;5045946;28;20596;-72
2023/09/26 06:28:39;;;;;;;5.65;2.85;;;;;;;20.38;52.83;101977.16;5045643;28;20087;-74
2023/09/26 06:31:08;;;;;;;5.90;2.53;;;;;;;20.38;52.68;101970.03;5046304;28;20061;-71
2023/09/26 06:33:35;;;;;;;5.60;2.63;;;;;;;20.41;52.71;101974.25;5046354;28;20041;-73
2023/09/26 06:36:01;;;;;;;5.65;2.50;;;;;;;20.40;52.90;101975.22;5045814;28;20033;-73
2023/09/26 06:38:26;;;;;;;4.82;2.60;;;;;;;20.39;52.86;101971.72;5045984;28;20028;-72
2023/09/26 06:41:04;;;;;;;6.57;2.50;;;;;;;20.38;53.10;101978.00;5045740;28;20056;-73
2023/09/26 06:43:30;;;;;;;8.00;2.85;;;;;;;20.38;52.79;101978.00;5031295;28;20048;-71
2023/09/26 06:45:56;;;;;;;5.85;2.60;;;;;;;20.39;53.23;101981.47;5066067;28;20109;-71
2023/09/26 06:48:21;;;;;;;7.20;2.67;;;;;;;20.37;53.17;101981.59;5047976;28;20064;-73
2023/09/26 06:50:47;;;;;;;6.30;2.50;;;;;;;20.40;53.46;101988.47;5065696;28;20047;-71
2023/09/26 06:53:12;;;;;;;7.32;2.60;;;;;;;20.40;53.23;101985.81;5065999;28;20059;-73
2023/09/26 06:55:39;;;;;;;5.25;2.63;;;;;;;20.42;53.33;101986.53;5051626;28;20041;-72
2023/09/26 06:58:07;;;;;;;5.18;2.40;;;;;;;20.43;53.56;101985.59;5045738;28;20033;-72
2023/09/26 07:00:35;;;;;;;5.30;2.55;;;;;;;20.46;53.72;101998.63;5049478;28;20032;-71
2023/09/26 07:03:00;;;;;;;5.30;2.53;;;;;;;20.44;53.62;101990.78;5051980;28;20037;-73
2023/09/26 07:05:26;;;;;;;6.07;2.60;;;;;;;20.46;53.58;101993.31;5048213;28;20112;-74
2023/09/26 07:07:52;;;;;;;6.10;2.53;;;;;;;20.47;53.44;102000.28;5053849;28;20069;-73
2023/09/26 07:10:17;;;;;;;6.13;2.47;;;;;;;20.45;53.86;102000.41;5055315;28;20140;-72
2023/09/26 07:12:44;;;;;;;4.88;2.45;;;;;;;20.44;53.75;102001.38;5048143;28;20028;-72
2023/09/26 07:15:12;;;;;;;6.28;2.80;;;;;;;20.45;53.79;101999.56;5066079;28;21098;-72
2023/09/26 07:17:38;;;;;;;6.60;2.67;;;;;;;20.44;53.83;101993.44;5069821;28;20440;-73
2023/09/26 07:20:13;;;;;;;6.13;3.40;;;;;;;20.43;53.74;101988.25;5064857;28;20053;-69
2023/09/26 07:22:38;;;;;;;4.65;2.63;;;;;;;20.36;54.18;101990.50;5046167;28;20032;-71
2023/09/26 07:25:04;;;;;;;12.05;2.58;;;;;;;20.28;54.40;101983.13;5031682;28;20082;-71
2023/09/26 07:27:30;;;;;;;5.50;2.55;;;;;;;20.23;54.75;101985.22;5049232;28;20031;-72
2023/09/26 07:29:56;;;;;;;5.88;2.83;;;;;;;20.21;54.72;101986.31;5049202;28;20036;-69
2023/09/26 07:32:21;;;;;;;7.80;2.50;;;;;;;20.19;54.66;101996.19;5049049;28;20108;-70
2023/09/26 07:34:46;;;;;;;6.30;2.40;;;;;;;20.18;54.73;101989.19;5049181;28;20037;-72
2023/09/26 07:37:12;;;;;;;6.13;3.10;;;;;;;20.21;54.55;101987.16;5048990;28;20035;-71
2023/09/26 07:39:37;;;;;;;5.28;2.38;;;;;;;20.38;54.00;101987.75;5049075;28;20115;-69
2023/09/26 07:42:03;;;;;;;8.57;2.67;;;;;;;20.49;53.77;101990.44;5047657;28;20175;-69
2023/09/26 07:44:29;;;;;;;6.03;2.60;;;;;;;20.52;53.59;101984.94;5049488;28;20063;-70
2023/09/26 07:46:55;;;;;;;7.40;2.50;;;;;;;20.56;53.51;101985.53;5049739;28;20033;-69
2023/09/26 07:49:20;;;;;;;5.75;2.63;;;;;;;20.59;53.28;101990.63;5049626;28;20031;-69
2023/09/26 07:51:46;;;;;;;5.60;2.53;;;;;;;20.60;53.09;101990.50;5049101;28;20431;-69
2023/09/26 07:54:11;;;;;;;7.03;2.70;;;;;;;20.61;53.20;101993.97;5049575;28;20040;-70
2023/09/26 07:56:37;;;;;;;7.03;2.55;;;;;;;20.60;53.16;101989.63;5049659;28;20029;-70
2023/09/26 07:59:03;;;;;;;7.32;2.40;;;;;;;20.62;53.22;101995.69;5049312;28;20132;-69
2023/09/26 08:01:28;;;;;;;4.10;2.17;;;;;;;20.61;53.48;101994.81;5049359;28;20032;-71
2023/09/26 08:03:53;;;;;;;5.00;2.50;;;;;;;20.60;53.21;101989.63;5047656;28;20041;-70
2023/09/26 08:06:19;;;;;;;4.40;2.33;;;;;;;20.61;53.35;101991.34;5066985;28;20120;-71
2023/09/26 08:08:46;;;;;;;4.55;2.30;;;;;;;20.61;53.26;101980.75;5069346;28;20032;-71
2023/09/26 08:11:11;;;;;;;4.88;2.58;;;;;;;20.59;53.28;101972.06;5069246;28;20079;-71
2023/09/26 08:13:39;;;;;;;6.85;2.40;;;;;;;20.59;53.25;101970.25;5057733;28;20060;-69
2023/09/26 08:16:04;;;;;;;6.18;2.72;;;;;;;20.58;53.33;101965.91;5048678;28;20032;-71
2023/09/26 08:18:30;;;;;;;4.63;2.50;;;;;;;20.60;53.29;101982.56;5048191;28;20102;-71
2023/09/26 08:20:57;;;;;;;5.60;2.60;;;;;;;20.58;53.36;101980.97;5050117;28;20469;-70
2023/09/26 08:23:26;;;;;;;5.53;2.80;;;;;;;20.58;53.12;101978.31;5066683;28;20040;-70
2023/09/26 08:26:03;;;;;;;7.47;2.30;;;;;;;20.58;53.26;101980.97;5053991;28;20698;-71
2023/09/26 08:28:29;;;;;;;5.60;2.20;;;;;;;20.57;53.49;101981.91;5068365;28;20056;-72
2023/09/26 08:30:59;;;;;;;5.57;2.35;;;;;;;20.59;53.42;101980.84;5068102;28;20039;-71
2023/09/26 08:33:26;;;;;;;5.45;2.25;;;;;;;20.57;53.59;101974.84;5062740;28;20071;-70
2023/09/26 08:35:52;;;;;;;6.60;2.20;;;;;;;20.57;53.51;101980.13;5047473;28;20128;-68
2023/09/26 08:38:18;;;;;;;4.95;2.20;;;;;;;20.56;53.34;101980.25;5048002;28;20474;-70
2023/09/26 08:40:44;;;;;;;5.88;2.40;;;;;;;20.57;53.52;101980.13;5048215;28;20103;-71
2023/09/26 08:43:12;;;;;;;5.75;2.40;;;;;;;20.54;53.11;101972.41;5047726;28;20056;-71
2023/09/26 08:45:39;;;;;;;8.40;2.38;;;;;;;20.58;53.45;101973.03;5047876;28;20033;-71
2023/09/26 08:48:05;;;;;;;9.82;2.50;;;;;;;20.60;53.20;101965.78;5030355;28;20466;-71
2023/09/26 08:50:30;;;;;;;6.35;2.50;;;;;;;20.59;53.37;101964.13;5048105;28;20029;-72
2023/09/26 08:52:58;;;;;;;4.57;2.28;;;;;;;20.56;53.44;101969.66;5046587;28;20047;-72
2023/09/26 08:55:25;;;;;;;4.95;1.92;;;;;;;20.54;53.64;101964.47;5047254;28;20037;-72
2023/09/26 08:57:50;;;;;;;6.18;2.20;;;;;;;20.57;53.71;101966.88;5046940;28;20040;-72
2023/09/26 09:00:17;;;;;;;8.68;2.80;;;;;;;20.58;53.65;101970.38;5047120;28;20041;-71
2023/09/26 09:02:43;;;;;;;6.55;2.60;;;;;;;20.56;53.59;101961.72;5046458;28;20071;-73
2023/09/26 09:05:09;;;;;;;5.72;2.17;;;;;;;20.54;53.76;101953.03;5049126;28;20138;-71
2023/09/26 09:07:38;;;;;;;4.93;2.20;;;;;;;20.55;53.92;101960.84;5046754;28;20401;-71
2023/09/26 09:10:11;;;;;;;10.95;2.33;;;;;;;20.55;54.23;101955.53;5046783;28;20183;-71
2023/09/26 09:12:38;;;;;;;6.65;2.70;;;;;;;20.55;53.89;101954.72;5039248;28;20029;-69
2023/09/26 09:15:19;;;;;;;8.15;3.85;;;;;;;20.55;53.66;101954.72;5062884;28;20059;-69
2023/09/26 09:17:49;;;;;;;7.97;2.47;;;;;;;20.59;53.77;101962.31;5055649;28;20037;-70
2023/09/26 09:20:28;;;;;;;7.68;2.10;;;;;;;20.56;54.14;101970.47;5043264;28;20049;-69
2023/09/26 09:23:04;;;;;;;6.03;2.25;;;;;;;20.52;54.46;101971.69;5050842;28;20444;-69
2023/09/26 09:25:40;;;;;;;8.27;2.40;;;;;;;20.53;54.23;101967.22;5045892;28;20041;-70
2023/09/26 09:28:09;;;;;;;4.80;2.20;;;;;;;20.49;54.24;101969.25;5046752;28;20032;-69
2023/09/26 09:30:39;;;;;;;13.05;2.60;;;;;;;20.47;54.63;101965.88;5046522;28;20040;-71
2023/09/26 09:33:06;;;;;;;5.75;2.25;;;;;;;20.42;54.96;101962.72;5046621;28;20037;-70
2023/09/26 09:35:32;;;;;;;5.55;2.50;;;;;;;20.38;55.16;101954.16;5046934;28;20381;-70
2023/09/26 09:37:57;;;;;;;5.43;2.08;;;;;;;20.37;54.96;101959.56;5045855;28;20037;-72
2023/09/26 09:40:24;;;;;;;6.75;2.25;;;;;;;20.38;55.02;101959.47;5046158;28;20481;-72
2023/09/26 09:42:50;;;;;;;5.35;2.20;;;;;;;20.40;54.92;101954.06;5046133;28;20053;-70
2023/09/26 09:45:19;;;;;;;5.53;2.22;;;;;;;20.41;54.81;101945.13;5045845;28;20043;-71
2023/09/26 09:47:46;;;;;;;7.85;2.55;;;;;;;20.42;54.92;101930.94;5045330;28;20544;-70
2023/09/26 09:50:13;;;;;;;7.63;2.10;;;;;;;20.42;54.85;101929.13;5046031;28;20056;-70
2023/09/26 09:52:43;;;;;;;6.05;2.35;;;;;;;20.44;54.96;101929.03;5045743;28;20032;-71
2023/09/26 09:55:13;;;;;;;5.10;1.90;;;;;;;20.45;54.56;101936.00;5045793;28;20033;-71
2023/09/26 09:57:45;;;;;;;5.35;2.30;;;;;;;20.47;54.55;101937.59;5045734;28;20393;-70
2023/09/26 10:00:12;;;;;;;4.57;1.90;;;;;;;20.49;54.76;101940.13;5046131;28;20120;-71
2023/09/26 10:02:37;;;;;;;4.88;2.03;;;;;;;20.49;54.45;101948.09;5046008;28;20600;-70
2023/09/26 10:05:06;;;;;;;4.72;2.05;;;;;;;20.52;54.79;101950.50;5045727;28;20067;-69
2023/09/26 10:07:33;;;;;;;6.18;2.28;;;;;;;20.51;54.95;101937.38;5046197;28;20029;-72
2023/09/26 10:09:58;;;;;;;4.07;1.73;;;;;;;20.52;54.51;101936.41;5046193;28;20090;-72
2023/09/26 10:12:25;;;;;;;5.10;1.90;;;;;;;20.51;54.86;101935.56;5045736;28;20100;-72
2023/09/26 10:14:50;;;;;;;4.65;2.10;;;;;;;20.52;54.90;101939.91;5045578;28;20025;-71
2023/09/26 10:17:19;;;;;;;6.30;1.83;;;;;;;20.54;54.56;101939.78;5045314;28;20033;-71
2023/09/26 10:19:44;;;;;;;5.68;1.90;;;;;;;20.55;54.69;101938.81;5045519;28;20043;-71
2023/09/26 10:22:18;;;;;;;5.78;2.10;;;;;;;20.53;55.16;101931.00;5044184;28;20532;-72
2023/09/26 10:24:53;;;;;;;5.15;2.00;;;;;;;20.54;54.79;101930.03;5067591;28;20484;-71
2023/09/26 10:27:30;;;;;;;7.13;2.17;;;;;;;20.57;55.08;101936.88;5054477;28;20140;-71
2023/09/26 10:29:56;;;;;;;6.57;2.28;;;;;;;20.57;54.90;101929.81;5050878;28;20021;-74
2023/09/26 10:32:30;;;;;;;5.03;2.00;;;;;;;20.61;54.90;101936.56;5048069;28;20028;-72
2023/09/26 10:34:57;;;;;;;7.68;2.00;;;;;;;20.60;54.84;101940.19;5046162;28;20099;-73
2023/09/26 10:37:25;;;;;;;6.95;2.13;;;;;;;20.61;55.56;101930.41;5045837;28;20041;-72
2023/09/26 10:39:51;;;;;;;6.60;2.15;;;;;;;20.60;55.29;101928.72;5045557;28;20037;-70
2023/09/26 10:42:20;;;;;;;3.95;1.55;;;;;;;20.62;55.04;101924.19;5045424;28;20067;-72
2023/09/26 10:44:46;;;;;;;5.72;1.85;;;;;;;20.62;54.97;101921.53;5045349;28;20039;-71
2023/09/26 10:47:21;;;;;;;5.13;2.00;;;;;;;20.62;55.09;101922.38;5044669;28;20029;-70
2023/09/26 10:49:46;;;;;;;5.55;2.42;;;;;;;20.63;55.02;101929.34;5046898;28;20541;-72
2023/09/26 10:52:13;;;;;;;6.50;1.80;;;;;;;20.65;54.88;101937.22;5049487;28;20116;-70
2023/09/26 10:54:41;;;;;;;4.35;1.80;;;;;;;20.66;55.03;101933.59;5049358;28;20515;-72
2023/09/26 10:57:17;;;;;;;5.70;1.77;;;;;;;20.66;55.13;101917.69;5049663;28;20032;-72
2023/09/26 10:59:43;;;;;;;3.67;1.75;;;;;;;20.66;55.17;101915.06;5049949;28;20075;-72
2023/09/26 11:02:09;;;;;;;5.93;2.08;;;;;;;20.68;55.32;101921.09;5049273;28;20033;-71
2023/09/26 11:04:35;;;;;;;6.03;1.80;;;;;;;20.70;55.18;101923.63;5048089;28;20072;-71
2023/09/26 11:07:02;;;;;;;4.10;1.80;;;;;;;20.69;55.34;101932.53;5059746;28;20056;-67
2023/09/26 11:09:28;;;;;;;5.95;1.90;;;;;;;20.72;54.85;101940.25;5049166;28;20374;-67
2023/09/26 11:11:56;;;;;;;4.60;2.08;;;;;;;20.70;55.05;101944.81;5049180;28;20112;-68
2023/09/26 11:14:28;;;;;;;4.85;1.75;;;;;;;20.69;55.00;101948.41;5031376;28;20035;-69
2023/09/26 11:16:53;;;;;;;4.25;1.92;;;;;;;20.68;55.36;101934.34;5062740;28;20044;-67
2023/09/26 11:19:23;;;;;;;6.45;2.05;;;;;;;20.70;55.29;101926.28;5068860;28;20036;-67
2023/09/26 11:21:48;;;;;;;4.78;1.90;;;;;;;20.68;54.99;101920.25;5050177;28;20102;-67